Time;durP1;ratioP1;P1;durP2;ratioP2;P2;SDS_P1;SDS_P2;PMS_P1;PMS_P2;Temp;Humidity;BMP_temperature;BMP_pressure;BME280_temperature;BME280_humidity;BME280_pressure;Samples;Min_cycle;Max_cycle;Signal;HPM_P1;HPM_P2
2020/12/25 00:02:11;;;;;;;9.65;2.28;;;;;;;;;;4995012;28;20726;-87
2020/12/25 00:04:38;;;;;;;8.52;1.60;;;;;;;;;;4994784;28;20403;-87
2020/12/25 00:07:22;;;;;;;7.03;1.35;;;;;;;;;;4994622;28;20064;-87
2020/12/25 00:09:51;;;;;;;7.63;2.00;;;;;;;;;;4994365;28;20046;-87
2020/12/25 00:12:18;;;;;;;4.10;1.75;;;;;;;;;;4994343;28;20054;-87
2020/12/25 00:14:44;;;;;;;4.13;1.52;;;;;;;;;;4994793;28;20077;-87
2020/12/25 00:17:12;;;;;;;9.35;1.50;;;;;;;;;;4994557;28;20058;-87
2020/12/25 00:19:41;;;;;;;6.05;1.73;;;;;;;;;;4994041;28;20056;-86
2020/12/25 00:22:11;;;;;;;5.22;1.75;;;;;;;;;;4994406;28;20042;-87
2020/12/25 00:24:41;;;;;;;5.68;1.55;;;;;;;;;;4995660;28;20054;-87
2020/12/25 00:27:07;;;;;;;4.70;1.65;;;;;;;;;;4995201;28;20406;-87
2020/12/25 00:29:38;;;;;;;4.57;1.80;;;;;;;;;;4995839;28;20054;-87
2020/12/25 00:32:06;;;;;;;5.45;1.55;;;;;;;;;;4993665;28;20478;-85
2020/12/25 00:34:36;;;;;;;6.65;1.77;;;;;;;;;;4993080;28;20484;-87
2020/12/25 00:37:03;;;;;;;4.55;1.42;;;;;;;;;;4993752;28;20550;-86
2020/12/25 00:39:31;;;;;;;7.97;1.42;;;;;;;;;;4993988;28;20061;-86
2020/12/25 00:42:01;;;;;;;5.25;1.70;;;;;;;;;;4993350;28;20054;-86
2020/12/25 00:44:29;;;;;;;3.97;1.58;;;;;;;;;;4993264;28;20058;-87
2020/12/25 00:47:07;;;;;;;6.72;2.00;;;;;;;;;;4994106;28;20057;-86
2020/12/25 00:49:35;;;;;;;2.10;1.20;;;;;;;;;;4993776;28;20053;-87
2020/12/25 00:52:11;;;;;;;6.35;1.20;;;;;;;;;;4993859;28;20121;-87
2020/12/25 00:54:39;;;;;;;2.33;1.10;;;;;;;;;;4996392;28;20116;-86
2020/12/25 00:57:05;;;;;;;2.42;1.08;;;;;;;;;;4991774;28;20050;-87
2020/12/25 00:59:37;;;;;;;4.25;1.15;;;;;;;;;;4992581;28;20475;-86
2020/12/25 01:02:12;;;;;;;2.67;1.17;;;;;;;;;;4992867;28;20091;-86
2020/12/25 01:04:39;;;;;;;9.27;1.15;;;;;;;;;;4992771;28;20487;-86
2020/12/25 01:07:06;;;;;;;6.43;1.45;;;;;;;;;;4994246;28;20050;-87
2020/12/25 01:09:39;;;;;;;4.60;1.70;;;;;;;;;;4997803;28;20050;-87
2020/12/25 01:12:05;;;;;;;6.63;1.20;;;;;;;;;;4997366;28;20447;-87
2020/12/25 01:14:32;;;;;;;2.53;0.98;;;;;;;;;;4996005;28;20701;-86
2020/12/25 01:17:06;;;;;;;6.63;1.30;;;;;;;;;;4995999;28;20053;-86
2020/12/25 01:19:35;;;;;;;10.25;1.33;;;;;;;;;;4996084;28;20046;-86
2020/12/25 01:22:02;;;;;;;5.53;1.30;;;;;;;;;;4995510;28;20049;-87
2020/12/25 01:24:35;;;;;;;1.95;1.02;;;;;;;;;;4996205;28;20085;-86
2020/12/25 01:27:03;;;;;;;7.07;1.77;;;;;;;;;;4996142;28;20061;-87
2020/12/25 01:29:32;;;;;;;7.80;1.20;;;;;;;;;;4996454;28;20050;-87
2020/12/25 01:31:58;;;;;;;3.10;1.58;;;;;;;;;;4996099;28;20051;-87
2020/12/25 01:34:32;;;;;;;3.47;1.17;;;;;;;;;;4996526;28;20050;-87
2020/12/25 01:37:04;;;;;;;5.88;1.60;;;;;;;;;;4996414;28;20134;-87
2020/12/25 01:39:31;;;;;;;5.47;1.55;;;;;;;;;;4995667;28;20058;-86
2020/12/25 01:41:58;;;;;;;3.70;1.90;;;;;;;;;;4995174;28;20517;-86
2020/12/25 01:44:26;;;;;;;3.80;1.23;;;;;;;;;;4994893;28;20471;-87
2020/12/25 01:46:55;;;;;;;5.93;1.70;;;;;;;;;;4995357;28;20046;-87
2020/12/25 01:49:22;;;;;;;3.47;1.83;;;;;;;;;;4979095;28;20046;-87
2020/12/25 01:51:50;;;;;;;8.93;1.80;;;;;;;;;;4995406;28;20046;-86
2020/12/25 01:54:20;;;;;;;4.72;1.65;;;;;;;;;;4995220;28;20046;-87
2020/12/25 01:56:53;;;;;;;7.03;1.95;;;;;;;;;;4995538;28;20403;-87
2020/12/25 01:59:21;;;;;;;7.30;1.52;;;;;;;;;;4995362;28;20108;-87
2020/12/25 02:01:49;;;;;;;1.98;1.13;;;;;;;;;;4995462;28;20109;-86
2020/12/25 02:04:17;;;;;;;4.00;1.40;;;;;;;;;;4995707;28;20069;-86
2020/12/25 02:06:47;;;;;;;4.72;1.40;;;;;;;;;;4996118;28;20120;-87
2020/12/25 02:09:14;;;;;;;2.53;1.42;;;;;;;;;;4995416;28;20404;-87
2020/12/25 02:11:41;;;;;;;2.20;1.42;;;;;;;;;;4995505;28;20043;-87
2020/12/25 02:14:19;;;;;;;5.18;1.73;;;;;;;;;;4996206;28;20058;-87
2020/12/25 02:16:46;;;;;;;2.70;1.77;;;;;;;;;;4989176;28;20042;-87
2020/12/25 02:19:14;;;;;;;4.75;1.42;;;;;;;;;;4995924;28;20679;-87
2020/12/25 02:21:41;;;;;;;4.03;1.50;;;;;;;;;;4995334;28;20051;-87
2020/12/25 02:24:08;;;;;;;6.38;1.60;;;;;;;;;;4994916;28;20108;-87
2020/12/25 02:26:37;;;;;;;2.50;1.60;;;;;;;;;;4986575;28;20066;-87
2020/12/25 02:29:06;;;;;;;2.90;1.25;;;;;;;;;;4995026;28;20053;-87
2020/12/25 02:31:38;;;;;;;2.72;1.30;;;;;;;;;;4994992;28;20053;-87
2020/12/25 02:34:05;;;;;;;3.88;1.10;;;;;;;;;;4992856;28;20405;-87
2020/12/25 02:36:32;;;;;;;7.70;1.50;;;;;;;;;;4995285;28;20138;-87
2020/12/25 02:39:01;;;;;;;2.60;1.00;;;;;;;;;;4995874;28;20051;-87
2020/12/25 02:41:30;;;;;;;2.42;1.10;;;;;;;;;;4995447;28;20050;-87
2020/12/25 02:43:57;;;;;;;2.60;1.08;;;;;;;;;;4994521;28;20054;-88
2020/12/25 02:46:29;;;;;;;7.88;1.08;;;;;;;;;;4994635;28;20058;-87
2020/12/25 02:48:56;;;;;;;3.33;1.35;;;;;;;;;;4995170;28;20053;-86
2020/12/25 02:51:24;;;;;;;2.08;1.13;;;;;;;;;;4995068;28;20403;-87
2020/12/25 02:53:52;;;;;;;3.65;1.10;;;;;;;;;;4995917;28;20042;-86
2020/12/25 02:56:21;;;;;;;2.60;0.95;;;;;;;;;;4994712;28;20054;-87
2020/12/25 02:58:53;;;;;;;4.53;1.02;;;;;;;;;;4995196;28;20088;-86
2020/12/25 03:01:23;;;;;;;4.93;0.90;;;;;;;;;;4992469;28;20065;-86
2020/12/25 03:03:50;;;;;;;1.70;0.65;;;;;;;;;;4993567;28;20053;-87
2020/12/25 03:06:21;;;;;;;3.92;0.90;;;;;;;;;;4994405;28;20050;-88
2020/12/25 03:08:48;;;;;;;6.50;1.30;;;;;;;;;;4994501;28;20469;-87
2020/12/25 03:11:17;;;;;;;9.27;1.52;;;;;;;;;;4994273;28;20050;-87
2020/12/25 03:13:44;;;;;;;1.85;0.90;;;;;;;;;;4994736;28;20506;-86
2020/12/25 03:16:11;;;;;;;5.57;1.25;;;;;;;;;;4994925;28;20042;-86
2020/12/25 03:18:38;;;;;;;4.38;0.98;;;;;;;;;;4994468;28;20766;-86
2020/12/25 03:21:05;;;;;;;5.38;1.58;;;;;;;;;;4994669;28;20073;-86
2020/12/25 03:23:32;;;;;;;7.72;1.05;;;;;;;;;;4994850;28;20679;-86
2020/12/25 03:25:58;;;;;;;7.78;0.90;;;;;;;;;;4996128;28;20054;-86
2020/12/25 03:28:25;;;;;;;5.07;0.77;;;;;;;;;;4994939;28;20046;-87
2020/12/25 03:31:01;;;;;;;2.05;0.90;;;;;;;;;;4993254;28;20061;-86
2020/12/25 03:33:28;;;;;;;6.43;1.25;;;;;;;;;;4994793;28;20054;-86
2020/12/25 03:35:55;;;;;;;2.80;0.70;;;;;;;;;;4993927;28;20399;-87
2020/12/25 03:38:22;;;;;;;3.42;0.75;;;;;;;;;;4993498;28;20051;-87
2020/12/25 03:40:49;;;;;;;4.20;0.93;;;;;;;;;;4994184;28;20058;-87
2020/12/25 03:43:28;;;;;;;2.70;0.80;;;;;;;;;;4994406;28;20055;-85
2020/12/25 03:45:55;;;;;;;7.95;0.73;;;;;;;;;;4993526;28;20104;-86
2020/12/25 03:48:23;;;;;;;5.13;0.85;;;;;;;;;;4995024;28;20060;-87
2020/12/25 03:51:01;;;;;;;8.68;0.77;;;;;;;;;;4993817;28;20050;-86
2020/12/25 03:53:28;;;;;;;2.00;0.57;;;;;;;;;;4993862;28;20099;-87
2020/12/25 03:55:55;;;;;;;4.15;0.88;;;;;;;;;;4994727;28;20464;-87
2020/12/25 03:58:29;;;;;;;3.65;0.50;;;;;;;;;;4993871;28;20487;-87
2020/12/25 04:00:55;;;;;;;5.55;0.82;;;;;;;;;;4992355;28;20518;-86
2020/12/25 04:03:30;;;;;;;3.85;1.25;;;;;;;;;;4995403;28;20134;-87
2020/12/25 04:06:08;;;;;;;3.15;0.68;;;;;;;;;;4994404;28;20109;-87
2020/12/25 04:08:37;;;;;;;6.93;0.77;;;;;;;;;;4994695;28;20101;-88
2020/12/25 04:11:05;;;;;;;8.52;1.13;;;;;;;;;;4995955;28;20051;-87
2020/12/25 04:13:35;;;;;;;1.33;0.60;;;;;;;;;;4996406;28;20050;-87
2020/12/25 04:16:03;;;;;;;4.43;0.70;;;;;;;;;;4996385;28;20046;-87
2020/12/25 04:18:30;;;;;;;9.82;0.88;;;;;;;;;;4996157;28;20105;-87
2020/12/25 04:20:57;;;;;;;6.03;0.80;;;;;;;;;;4996265;28;20116;-87
2020/12/25 04:23:24;;;;;;;8.82;0.80;;;;;;;;;;5007835;28;20050;-87
2020/12/25 04:25:55;;;;;;;3.35;0.45;;;;;;;;;;5002735;28;20085;-87
2020/12/25 04:28:25;;;;;;;3.40;0.80;;;;;;;;;;5004816;28;20062;-88
2020/12/25 04:30:55;;;;;;;4.20;1.00;;;;;;;;;;5006408;28;20077;-87
2020/12/25 04:33:22;;;;;;;5.45;1.30;;;;;;;;;;5005184;28;20125;-87
2020/12/25 04:35:50;;;;;;;2.65;0.90;;;;;;;;;;5004682;28;20101;-86
2020/12/25 04:38:17;;;;;;;3.25;0.75;;;;;;;;;;5003308;28;20050;-88
2020/12/25 04:40:44;;;;;;;6.68;0.90;;;;;;;;;;4995068;28;20058;-87
2020/12/25 04:43:14;;;;;;;5.68;0.93;;;;;;;;;;4981578;28;20133;-87
2020/12/25 04:45:42;;;;;;;7.28;0.75;;;;;;;;;;4992162;28;20069;-87
2020/12/25 04:48:10;;;;;;;3.65;0.80;;;;;;;;;;4997612;28;20121;-87
2020/12/25 04:50:37;;;;;;;3.05;0.80;;;;;;;;;;4997342;28;20097;-87
2020/12/25 04:53:03;;;;;;;3.17;0.93;;;;;;;;;;4998187;28;20046;-87
2020/12/25 04:55:34;;;;;;;1.98;0.63;;;;;;;;;;4997796;28;20076;-86
2020/12/25 04:58:01;;;;;;;2.85;0.90;;;;;;;;;;4997151;28;20533;-86
2020/12/25 05:00:27;;;;;;;10.02;0.95;;;;;;;;;;4997632;28;20971;-87
2020/12/25 05:02:56;;;;;;;2.60;0.50;;;;;;;;;;4996394;28;20050;-87
2020/12/25 05:05:33;;;;;;;4.63;0.95;;;;;;;;;;4996639;28;20137;-86
2020/12/25 05:08:02;;;;;;;2.53;0.80;;;;;;;;;;4997898;28;20477;-87
2020/12/25 05:10:29;;;;;;;5.97;0.80;;;;;;;;;;4995984;28;20069;-86
2020/12/25 05:12:56;;;;;;;3.75;0.90;;;;;;;;;;4995987;28;20072;-86
2020/12/25 05:15:23;;;;;;;3.25;0.60;;;;;;;;;;4996380;28;20129;-87
2020/12/25 05:17:56;;;;;;;1.40;0.50;;;;;;;;;;4980862;28;20093;-86
2020/12/25 05:20:24;;;;;;;3.75;0.60;;;;;;;;;;5000510;28;20097;-86
2020/12/25 05:23:09;;;;;;;2.58;0.75;;;;;;;;;;4998333;28;20789;-87
2020/12/25 05:25:38;;;;;;;2.70;0.60;;;;;;;;;;5000717;28;20046;-86
2020/12/25 05:28:11;;;;;;;2.00;0.80;;;;;;;;;;5004173;28;20058;-86
2020/12/25 05:30:39;;;;;;;4.70;0.50;;;;;;;;;;5006207;28;20062;-86
2020/12/25 05:33:10;;;;;;;4.15;0.63;;;;;;;;;;5015370;28;20045;-86
2020/12/25 05:35:41;;;;;;;4.30;0.65;;;;;;;;;;5023917;28;20072;-86
2020/12/25 05:38:10;;;;;;;6.22;1.10;;;;;;;;;;5012621;28;20057;-86
2020/12/25 05:40:43;;;;;;;7.15;1.23;;;;;;;;;;5015232;28;20439;-87
2020/12/25 05:43:15;;;;;;;5.68;0.90;;;;;;;;;;5016731;28;20113;-86
2020/12/25 05:49:24;;;;;;;11.02;3.45;;;;;;;;;;4999269;28;20049;-87
2020/12/25 05:55:05;;;;;;;1.50;1.00;;;;;;;;;;4997552;28;20055;-87
2020/12/25 05:57:34;;;;;;;6.97;1.33;;;;;;;;;;4993150;28;20081;-87
2020/12/25 06:00:04;;;;;;;2.80;0.60;;;;;;;;;;4993129;28;20656;-87
2020/12/25 06:02:32;;;;;;;2.03;0.90;;;;;;;;;;4993955;28;20552;-86
2020/12/25 06:05:02;;;;;;;4.05;0.60;;;;;;;;;;4994871;28;20082;-86
2020/12/25 06:07:44;;;;;;;4.75;0.82;;;;;;;;;;4994671;28;20047;-86
2020/12/25 06:10:15;;;;;;;9.13;1.00;;;;;;;;;;4994903;28;20092;-85
2020/12/25 06:12:55;;;;;;;6.53;0.75;;;;;;;;;;5006344;28;20093;-86
2020/12/25 06:15:29;;;;;;;3.38;0.68;;;;;;;;;;4994736;28;20089;-87
2020/12/25 06:18:02;;;;;;;2.73;0.80;;;;;;;;;;4994838;28;20054;-86
2020/12/25 06:20:35;;;;;;;7.63;0.73;;;;;;;;;;4995278;28;20050;-87
2020/12/25 06:23:04;;;;;;;2.58;0.80;;;;;;;;;;4998852;28;20061;-87
2020/12/25 06:25:31;;;;;;;5.65;3.65;;;;;;;;;;4994660;28;20074;-86
2020/12/25 06:28:03;;;;;;;5.63;1.10;;;;;;;;;;4994575;28;20050;-87
2020/12/25 06:30:35;;;;;;;1.45;1.17;;;;;;;;;;4994838;28;20054;-87
2020/12/25 06:33:05;;;;;;;1.42;0.80;;;;;;;;;;4997680;28;20054;-93
2020/12/25 06:35:38;;;;;;;9.63;1.00;;;;;;;;;;5001426;28;20046;-94
2020/12/25 06:38:24;;;;;;;1.20;0.80;;;;;;;;;;5000628;28;20495;-93
2020/12/25 06:40:55;;;;;;;2.22;0.98;;;;;;;;;;5000616;28;20500;-94
2020/12/25 06:43:30;;;;;;;5.45;1.40;;;;;;;;;;5001153;28;20058;-94
2020/12/25 06:46:03;;;;;;;8.70;1.98;;;;;;;;;;5001544;28;20510;-93
2020/12/25 06:48:30;;;;;;;1.95;0.98;;;;;;;;;;5001007;28;20074;-93
2020/12/25 06:50:58;;;;;;;4.53;2.58;;;;;;;;;;5000499;28;20054;-93
2020/12/25 06:53:39;;;;;;;8.70;1.70;;;;;;;;;;5000713;28;20046;-93
2020/12/25 06:56:22;;;;;;;4.30;1.20;;;;;;;;;;5000623;28;20048;-93
2020/12/25 06:58:56;;;;;;;2.72;0.82;;;;;;;;;;4994269;28;20046;-93
2020/12/25 07:01:38;;;;;;;5.22;1.10;;;;;;;;;;5000731;28;20054;-93
2020/12/25 07:04:07;;;;;;;2.63;0.70;;;;;;;;;;4998944;28;20051;-93
2020/12/25 07:06:35;;;;;;;3.38;0.93;;;;;;;;;;4984105;28;20050;-93
2020/12/25 07:09:10;;;;;;;4.43;0.85;;;;;;;;;;5000164;28;20051;-93
2020/12/25 07:11:37;;;;;;;6.70;1.23;;;;;;;;;;4995226;28;20054;-93
2020/12/25 07:14:04;;;;;;;5.13;1.63;;;;;;;;;;4996887;28;20061;-93
2020/12/25 07:16:32;;;;;;;4.80;0.63;;;;;;;;;;5000526;28;20110;-92
2020/12/25 07:19:02;;;;;;;3.30;0.85;;;;;;;;;;5000864;28;20061;-93
2020/12/25 07:21:29;;;;;;;2.63;0.75;;;;;;;;;;4998066;28;20534;-92
2020/12/25 07:23:57;;;;;;;4.63;0.95;;;;;;;;;;5000525;28;20058;-93
2020/12/25 07:26:25;;;;;;;4.00;0.60;;;;;;;;;;5001297;28;20042;-93
2020/12/25 07:28:52;;;;;;;3.38;1.08;;;;;;;;;;5001216;28;20046;-92
2020/12/25 07:31:21;;;;;;;2.28;0.90;;;;;;;;;;5003221;28;20053;-93
2020/12/25 07:37:00;;;;;;;2.42;0.80;;;;;;;;;;4983323;28;20046;-94
2020/12/25 07:39:28;;;;;;;2.53;0.93;;;;;;;;;;5000675;28;20073;-94
2020/12/25 07:42:02;;;;;;;2.35;0.80;;;;;;;;;;5002251;28;20054;-93
2020/12/25 07:44:29;;;;;;;6.07;1.10;;;;;;;;;;5002171;28;20538;-93
2020/12/25 07:50:41;;;;;;;4.47;1.60;;;;;;;;;;5002536;28;20129;-93
2020/12/25 07:53:16;;;;;;;7.80;2.80;;;;;;;;;;5001130;28;20054;-94
2020/12/25 07:55:49;;;;;;;4.00;1.58;;;;;;;;;;4985167;28;20069;-93
2020/12/25 07:58:20;;;;;;;3.45;1.08;;;;;;;;;;5002615;28;20057;-93
2020/12/25 08:00:48;;;;;;;3.00;1.23;;;;;;;;;;5006019;28;20054;-93
2020/12/25 08:03:16;;;;;;;5.07;1.55;;;;;;;;;;5003578;28;20056;-94
2020/12/25 08:05:48;;;;;;;5.45;1.23;;;;;;;;;;5000743;28;20594;-94
2020/12/25 08:08:15;;;;;;;4.15;1.92;;;;;;;;;;5000282;28;20130;-93
2020/12/25 08:10:42;;;;;;;6.00;2.25;;;;;;;;;;4999183;28;20146;-94
2020/12/25 08:13:09;;;;;;;3.80;1.20;;;;;;;;;;4999441;28;20046;-93
2020/12/25 08:15:37;;;;;;;5.05;1.63;;;;;;;;;;5000072;28;20112;-94
2020/12/25 08:18:06;;;;;;;2.45;0.73;;;;;;;;;;5003432;28;20081;-93
2020/12/25 08:20:34;;;;;;;1.20;0.80;;;;;;;;;;5004132;28;20052;-93
2020/12/25 08:23:01;;;;;;;2.47;0.93;;;;;;;;;;5004875;28;20058;-93
2020/12/25 08:25:32;;;;;;;3.40;0.52;;;;;;;;;;5004609;28;20060;-93
2020/12/25 08:28:00;;;;;;;5.60;0.65;;;;;;;;;;5004459;28;20105;-94
2020/12/25 08:30:27;;;;;;;3.63;0.80;;;;;;;;;;5004363;28;20043;-94
2020/12/25 08:32:59;;;;;;;2.33;0.65;;;;;;;;;;5003970;28;20054;-93
2020/12/25 08:35:29;;;;;;;1.63;0.80;;;;;;;;;;4988810;28;20054;-93
2020/12/25 08:37:56;;;;;;;2.67;0.55;;;;;;;;;;5004123;28;20077;-93
2020/12/25 08:40:32;;;;;;;1.27;0.60;;;;;;;;;;5003476;28;20046;-93
2020/12/25 08:43:16;;;;;;;7.22;1.20;;;;;;;;;;5003244;28;20050;-93
2020/12/25 08:45:55;;;;;;;5.90;0.52;;;;;;;;;;4984354;28;20077;-94
2020/12/25 08:48:23;;;;;;;6.18;0.80;;;;;;;;;;4983723;28;20073;-94
2020/12/25 08:50:52;;;;;;;4.05;1.00;;;;;;;;;;4983508;28;20086;-93
2020/12/25 08:53:21;;;;;;;4.18;0.85;;;;;;;;;;4996397;28;20060;-94
2020/12/25 08:55:54;;;;;;;2.72;1.05;;;;;;;;;;4995066;28;20057;-93
2020/12/25 08:58:28;;;;;;;6.65;1.30;;;;;;;;;;5000714;28;20495;-94
2020/12/25 09:01:03;;;;;;;4.88;0.80;;;;;;;;;;5003778;28;20102;-95
2020/12/25 09:03:42;;;;;;;4.90;1.35;;;;;;;;;;5002755;28;20046;-94
2020/12/25 09:06:10;;;;;;;12.07;1.95;;;;;;;;;;5002885;28;20050;-94
2020/12/25 09:08:38;;;;;;;5.07;1.42;;;;;;;;;;5002826;28;20145;-93
2020/12/25 09:11:09;;;;;;;8.90;0.98;;;;;;;;;;5002391;28;20050;-94
2020/12/25 09:13:36;;;;;;;2.05;0.90;;;;;;;;;;4996705;28;20051;-95
2020/12/25 09:16:04;;;;;;;6.03;1.25;;;;;;;;;;4992873;28;20047;-93
2020/12/25 09:18:32;;;;;;;5.57;1.17;;;;;;;;;;4994813;28;20479;-93
2020/12/25 09:21:00;;;;;;;4.95;0.90;;;;;;;;;;5000086;28;20054;-93
2020/12/25 09:23:28;;;;;;;8.35;1.25;;;;;;;;;;4983716;28;20057;-93
2020/12/25 09:25:58;;;;;;;2.58;0.90;;;;;;;;;;5002547;28;20073;-94
2020/12/25 09:31:55;;;;;;;2.35;0.98;;;;;;;;;;4997961;28;20050;-93
2020/12/25 09:34:22;;;;;;;2.72;0.70;;;;;;;;;;5002094;28;20046;-94
2020/12/25 09:36:50;;;;;;;8.55;1.25;;;;;;;;;;5001943;28;20054;-93
2020/12/25 09:39:17;;;;;;;6.13;1.20;;;;;;;;;;4996702;28;20113;-94
2020/12/25 09:41:44;;;;;;;6.57;2.05;;;;;;;;;;5017105;28;20094;-94
2020/12/25 09:44:17;;;;;;;2.05;0.80;;;;;;;;;;5001237;28;20467;-93
2020/12/25 09:46:45;;;;;;;4.75;1.30;;;;;;;;;;5001015;28;20054;-94
2020/12/25 09:49:12;;;;;;;5.57;0.80;;;;;;;;;;5001297;28;20142;-94
2020/12/25 09:51:41;;;;;;;1.83;0.75;;;;;;;;;;5000072;28;20050;-93
2020/12/25 09:54:08;;;;;;;2.55;0.82;;;;;;;;;;5000248;28;20089;-93
2020/12/25 09:56:50;;;;;;;2.03;0.80;;;;;;;;;;5000785;28;20054;-92
2020/12/25 09:59:22;;;;;;;1.55;0.60;;;;;;;;;;4997595;28;20054;-93
2020/12/25 10:01:51;;;;;;;9.38;1.95;;;;;;;;;;4993005;28;20101;-93
2020/12/25 10:04:24;;;;;;;5.30;2.08;;;;;;;;;;5000058;28;20054;-92
2020/12/25 10:06:53;;;;;;;;;;;;;;;;;;5001727;28;20046;-94
2020/12/25 10:09:20;;;;;;;6.55;1.27;;;;;;;;;;5001553;28;19922;-93
2020/12/25 10:11:48;;;;;;;7.43;2.78;;;;;;;;;;5000805;28;20089;-93
2020/12/25 10:14:15;;;;;;;4.75;0.90;;;;;;;;;;5001432;28;20076;-93
2020/12/25 10:16:42;;;;;;;3.03;1.20;;;;;;;;;;5001588;28;20042;-94
2020/12/25 10:19:10;;;;;;;2.88;1.10;;;;;;;;;;5001636;28;20058;-94
2020/12/25 10:21:39;;;;;;;4.80;0.85;;;;;;;;;;5001297;28;20109;-95
2020/12/25 10:24:07;;;;;;;9.27;1.30;;;;;;;;;;5001346;28;20068;-88
2020/12/25 10:26:37;;;;;;;4.68;1.15;;;;;;;;;;4999860;28;20081;-89
2020/12/25 10:29:18;;;;;;;2.50;1.58;;;;;;;;;;5002266;28;20053;-92
2020/12/25 10:31:52;;;;;;;3.38;1.10;;;;;;;;;;4998827;28;20097;-92
2020/12/25 10:34:20;;;;;;;3.85;2.45;;;;;;;;;;5001023;28;20047;-91
2020/12/25 10:36:48;;;;;;;2.55;1.23;;;;;;;;;;5001225;28;20141;-92
2020/12/25 10:39:15;;;;;;;4.75;1.02;;;;;;;;;;4999097;28;20054;-91
2020/12/25 10:41:44;;;;;;;4.53;1.20;;;;;;;;;;5000152;28;20105;-93
2020/12/25 10:44:17;;;;;;;6.55;0.95;;;;;;;;;;4984173;28;20058;-92
2020/12/25 10:46:48;;;;;;;7.75;1.40;;;;;;;;;;5000264;28;20054;-92
2020/12/25 10:49:15;;;;;;;4.45;0.95;;;;;;;;;;5001090;28;20050;-90
2020/12/25 10:52:15;;;;;;;4.72;1.02;;;;;;;;;;5000848;28;20050;-92
2020/12/25 10:54:42;;;;;;;5.93;1.00;;;;;;;;;;5000196;28;20061;-92
2020/12/25 10:57:11;;;;;;;4.07;1.70;;;;;;;;;;5000301;28;20065;-92
2020/12/25 10:59:41;;;;;;;3.78;1.35;;;;;;;;;;5000044;28;20050;-90
2020/12/25 11:02:10;;;;;;;3.25;0.70;;;;;;;;;;4991795;28;20042;-93
2020/12/25 11:04:39;;;;;;;9.27;0.82;;;;;;;;;;5000424;28;20060;-91
2020/12/25 11:07:23;;;;;;;4.78;1.10;;;;;;;;;;5000619;28;20447;-92
2020/12/25 11:09:52;;;;;;;1.25;0.40;;;;;;;;;;4999432;28;20050;-92
2020/12/25 11:12:34;;;;;;;2.70;0.50;;;;;;;;;;4999527;28;20060;-89
2020/12/25 11:15:01;;;;;;;8.80;0.95;;;;;;;;;;4997156;28;20156;-90
2020/12/25 11:17:29;;;;;;;11.65;1.15;;;;;;;;;;4997779;28;20158;-90
2020/12/25 11:19:56;;;;;;;2.80;1.52;;;;;;;;;;4996992;28;20054;-90
2020/12/25 11:22:26;;;;;;;8.93;1.30;;;;;;;;;;4998207;28;20042;-91
2020/12/25 11:24:54;;;;;;;3.40;0.75;;;;;;;;;;4999283;28;20053;-92
2020/12/25 11:27:32;;;;;;;1.35;0.65;;;;;;;;;;5003285;28;20050;-92
2020/12/25 11:29:59;;;;;;;4.00;1.15;;;;;;;;;;4999392;28;20050;-92
2020/12/25 11:32:27;;;;;;;5.47;0.65;;;;;;;;;;4999609;28;20050;-92
2020/12/25 11:34:54;;;;;;;3.13;0.68;;;;;;;;;;4981115;28;20065;-92
2020/12/25 11:37:22;;;;;;;4.28;0.82;;;;;;;;;;4997893;28;20054;-92
2020/12/25 11:39:49;;;;;;;3.00;0.40;;;;;;;;;;5000633;28;20058;-92
2020/12/25 11:42:16;;;;;;;3.85;0.63;;;;;;;;;;5000239;28;20065;-92
2020/12/25 11:44:45;;;;;;;3.92;1.00;;;;;;;;;;5000529;28;20050;-92
2020/12/25 11:47:21;;;;;;;2.78;0.47;;;;;;;;;;4986198;28;20050;-92
2020/12/25 11:49:48;;;;;;;4.03;0.60;;;;;;;;;;5000620;28;20108;-92
2020/12/25 11:52:15;;;;;;;2.47;0.82;;;;;;;;;;4999755;28;20042;-92
2020/12/25 11:54:50;;;;;;;8.52;1.35;;;;;;;;;;5000137;28;20050;-92
2020/12/25 11:57:17;;;;;;;6.75;1.92;;;;;;;;;;5000621;28;20050;-93
2020/12/25 11:59:45;;;;;;;6.00;0.93;;;;;;;;;;4999715;28;20062;-91
2020/12/25 12:02:28;;;;;;;9.65;1.70;;;;;;;;;;5001090;28;20361;-92
2020/12/25 12:04:56;;;;;;;8.02;2.05;;;;;;;;;;4980297;28;20109;-93
2020/12/25 12:07:45;;;;;;;7.88;2.20;;;;;;;;;;4965277;28;20058;-92
2020/12/25 12:10:12;;;;;;;3.50;0.75;;;;;;;;;;4995103;28;20054;-92
2020/12/25 12:12:41;;;;;;;2.65;1.02;;;;;;;;;;4999904;28;20054;-93
2020/12/25 12:15:08;;;;;;;5.07;1.25;;;;;;;;;;5000321;28;20051;-92
2020/12/25 12:17:45;;;;;;;6.18;1.30;;;;;;;;;;4985405;28;20047;-93
2020/12/25 12:20:12;;;;;;;6.78;1.33;;;;;;;;;;5000351;28;20492;-92
2020/12/25 12:22:39;;;;;;;6.80;2.20;;;;;;;;;;5000227;28;20061;-93
2020/12/25 12:25:08;;;;;;;3.60;1.15;;;;;;;;;;5000346;28;20054;-93
2020/12/25 12:27:35;;;;;;;8.77;1.60;;;;;;;;;;5002046;28;20054;-93
2020/12/25 12:30:03;;;;;;;3.58;1.02;;;;;;;;;;5000261;28;20053;-92
2020/12/25 12:33:10;;;;;;;3.88;0.90;;;;;;;;;;5001361;28;20054;-93
2020/12/25 12:35:53;;;;;;;7.63;0.90;;;;;;;;;;5000150;28;20054;-93
2020/12/25 12:38:22;;;;;;;11.25;1.40;;;;;;;;;;5000722;28;20046;-93
2020/12/25 12:40:52;;;;;;;10.77;2.40;;;;;;;;;;5000013;28;20066;-92
2020/12/25 12:43:19;;;;;;;7.20;1.40;;;;;;;;;;5000430;28;20537;-93
2020/12/25 12:45:45;;;;;;;6.13;1.30;;;;;;;;;;5000302;28;20065;-92
2020/12/25 12:48:12;;;;;;;3.55;0.98;;;;;;;;;;5000787;28;20129;-93
2020/12/25 12:50:46;;;;;;;5.72;1.30;;;;;;;;;;5000141;28;20380;-93
2020/12/25 12:53:18;;;;;;;5.18;1.40;;;;;;;;;;5000263;28;20054;-93
2020/12/25 12:55:47;;;;;;;17.83;1.80;;;;;;;;;;5000354;28;20049;-93
2020/12/25 12:58:14;;;;;;;8.07;0.88;;;;;;;;;;5000230;28;20042;-93
2020/12/25 13:00:57;;;;;;;5.95;0.80;;;;;;;;;;4996399;28;20088;-91
2020/12/25 13:03:45;;;;;;;10.23;1.20;;;;;;;;;;5002416;28;20056;-93
2020/12/25 13:06:14;;;;;;;7.00;1.17;;;;;;;;;;5003808;28;20105;-92
2020/12/25 13:08:43;;;;;;;1.73;0.75;;;;;;;;;;5003893;28;20046;-93
2020/12/25 13:11:23;;;;;;;6.32;0.90;;;;;;;;;;5004074;28;20042;-92
2020/12/25 13:13:53;;;;;;;4.07;1.23;;;;;;;;;;5004726;28;20054;-93
2020/12/25 13:16:23;;;;;;;5.40;1.52;;;;;;;;;;5003785;28;20137;-93
2020/12/25 13:18:52;;;;;;;5.72;1.02;;;;;;;;;;5002696;28;20042;-93
2020/12/25 13:21:24;;;;;;;4.32;1.10;;;;;;;;;;5003477;28;20046;-92
2020/12/25 13:23:54;;;;;;;4.43;0.77;;;;;;;;;;4988427;28;20064;-93
2020/12/25 13:26:29;;;;;;;;;;;;;;;;;;5006091;28;20546;-93
2020/12/25 13:29:02;;;;;;;4.97;1.38;;;;;;;;;;5004712;28;19928;-93
2020/12/25 13:31:35;;;;;;;5.95;2.58;;;;;;;;;;5002921;28;20050;-92
2020/12/25 13:34:19;;;;;;;3.72;0.98;;;;;;;;;;5007512;28;20038;-93
2020/12/25 13:36:49;;;;;;;12.40;1.30;;;;;;;;;;4984696;28;20042;-92
2020/12/25 13:39:39;;;;;;;7.75;1.17;;;;;;;;;;5018748;28;20054;-90
2020/12/25 13:42:39;;;;;;;6.68;1.20;;;;;;;;;;5019635;28;20032;-91
2020/12/25 13:52:07;;;;;;;4.85;1.10;;;;;;;;;;5038285;28;20069;-91
2020/12/25 13:55:03;;;;;;;1.90;0.68;;;;;;;;;;5015435;28;20054;-92
2020/12/25 13:57:45;;;;;;;5.57;0.90;;;;;;;;;;4984237;28;20157;-92
2020/12/25 14:14:12;;;;;;;3.78;1.05;;;;;;;;;;5002429;28;20064;-92
2020/12/25 14:16:55;;;;;;;9.60;1.35;;;;;;;;;;5001481;28;20050;-93
2020/12/25 14:22:43;;;;;;;8.02;2.22;;;;;;;;;;5010848;28;20177;-89
2020/12/25 14:25:36;;;;;;;8.52;1.40;;;;;;;;;;5003794;28;20483;-88
2020/12/25 14:31:15;;;;;;;4.85;1.48;;;;;;;;;;4991053;28;20053;-89
2020/12/25 14:33:42;;;;;;;9.60;1.63;;;;;;;;;;4998725;28;20050;-88
2020/12/25 14:36:21;;;;;;;4.22;2.13;;;;;;;;;;4989580;28;20609;-94
2020/12/25 14:38:59;;;;;;;16.80;4.03;;;;;;;;;;4989061;28;20055;-88
2020/12/25 14:41:40;;;;;;;8.90;2.33;;;;;;;;;;4985617;28;20050;-88
2020/12/25 14:44:12;;;;;;;8.27;1.85;;;;;;;;;;4986437;28;20132;-88
2020/12/25 14:46:51;;;;;;;11.52;1.98;;;;;;;;;;4984196;28;21221;-88
2020/12/25 14:49:33;;;;;;;9.27;1.60;;;;;;;;;;4986629;28;20053;-88
2020/12/25 14:52:01;;;;;;;12.25;1.83;;;;;;;;;;4990883;28;20128;-88
2020/12/25 14:54:33;;;;;;;11.82;1.52;;;;;;;;;;4980663;28;20056;-88
2020/12/25 14:57:11;;;;;;;9.70;2.10;;;;;;;;;;4981115;28;20061;-87
2020/12/25 14:59:42;;;;;;;9.07;2.13;;;;;;;;;;4981502;28;20060;-88
2020/12/25 15:02:10;;;;;;;17.92;2.55;;;;;;;;;;4980168;28;20069;-88
2020/12/25 15:04:37;;;;;;;6.93;1.48;;;;;;;;;;4984321;28;20054;-88
2020/12/25 15:10:31;;;;;;;2.97;1.48;;;;;;;;;;4999126;28;20092;-89
2020/12/25 15:13:00;;;;;;;4.00;1.30;;;;;;;;;;4986375;28;20125;-91
2020/12/25 15:15:31;;;;;;;3.20;1.55;;;;;;;;;;5006120;28;20070;-92
2020/12/25 15:17:59;;;;;;;9.80;1.55;;;;;;;;;;5005956;28;20058;-92
2020/12/25 15:20:28;;;;;;;6.70;1.90;;;;;;;;;;4989411;28;20054;-92
2020/12/25 15:23:01;;;;;;;2.80;1.45;;;;;;;;;;5007346;28;20078;-92
2020/12/25 15:25:28;;;;;;;8.85;1.48;;;;;;;;;;5001293;28;20050;-92
2020/12/25 15:34:57;;;;;;;19.38;1.85;;;;;;;;;;5003699;28;20085;-92
2020/12/25 15:38:08;;;;;;;6.88;1.50;;;;;;;;;;5001846;28;20054;-92
2020/12/25 15:44:30;;;;;;;4.97;1.50;;;;;;;;;;5003628;28;20103;-92
2020/12/25 15:47:05;;;;;;;9.05;1.15;;;;;;;;;;5001151;28;20448;-92
2020/12/25 15:49:40;;;;;;;4.13;1.58;;;;;;;;;;5006004;28;20108;-92
2020/12/25 15:55:41;;;;;;;6.57;1.30;;;;;;;;;;5013334;28;20044;-91
2020/12/25 16:05:08;;;;;;;6.35;1.88;;;;;;;;;;5024582;28;20029;-91
2020/12/25 16:11:17;;;;;;;18.02;2.05;;;;;;;;;;5001804;28;20073;-93
2020/12/25 16:14:04;;;;;;;4.90;2.03;;;;;;;;;;5001758;28;20120;-92
2020/12/25 16:16:34;;;;;;;13.52;1.85;;;;;;;;;;4998299;28;20149;-92
2020/12/25 16:19:15;;;;;;;6.10;2.03;;;;;;;;;;5000784;28;20058;-92